Time;durP1;ratioP1;P1;durP2;ratioP2;P2;SDS_P1;SDS_P2;PMS_P1;PMS_P2;Temp;Humidity;BMP_temperature;BMP_pressure;BME280_temperature;BME280_humidity;BME280_pressure;Samples;Min_cycle;Max_cycle;Signal;HPM_P1;HPM_P2
2022/11/20 00:00:27;;;;;;;44.92;21.88;;;0.40;99.90;;;;;;6210458;23;20013;-80
2022/11/20 00:02:52;;;;;;;36.95;20.45;;;0.40;99.90;;;;;;6209376;23;20100;-80
2022/11/20 00:05:19;;;;;;;34.17;20.67;;;0.40;99.90;;;;;;6209046;23;20008;-80
2022/11/20 00:07:44;;;;;;;33.95;20.23;;;0.40;99.90;;;;;;6209403;23;20012;-80
2022/11/20 00:10:10;;;;;;;59.97;25.15;;;0.40;99.90;;;;;;6211002;23;20059;-80
2022/11/20 00:12:36;;;;;;;88.22;30.95;;;0.50;99.90;;;;;;6210048;23;20020;-79
2022/11/20 00:15:02;;;;;;;132.73;42.30;;;0.50;99.90;;;;;;6210821;23;20017;-80
2022/11/20 00:17:27;;;;;;;51.33;24.25;;;1.40;99.90;;;;;;6211085;23;20012;-80
2022/11/20 00:19:53;;;;;;;38.50;21.52;;;0.50;99.90;;;;;;6211458;23;20031;-80
2022/11/20 00:22:19;;;;;;;27.65;17.00;;;0.50;99.90;;;;;;6212259;23;20443;-80
2022/11/20 00:24:44;;;;;;;27.60;15.00;;;0.60;99.90;;;;;;6213298;23;20020;-80
2022/11/20 00:27:10;;;;;;;23.38;14.80;;;0.50;99.90;;;;;;6210586;23;20394;-79
2022/11/20 00:29:35;;;;;;;23.58;14.73;;;0.50;99.90;;;;;;6212286;23;20020;-80
2022/11/20 00:32:01;;;;;;;22.60;13.32;;;0.50;99.90;;;;;;6211300;23;20020;-80
2022/11/20 00:34:27;;;;;;;22.85;13.52;;;0.80;99.90;;;;;;6212931;23;20492;-80
2022/11/20 00:36:52;;;;;;;37.08;18.13;;;0.50;99.90;;;;;;6185738;23;20047;-80
2022/11/20 00:39:18;;;;;;;22.58;12.85;;;0.50;99.90;;;;;;6212201;23;20009;-79
2022/11/20 00:41:44;;;;;;;22.23;14.20;;;0.50;99.90;;;;;;6210515;23;20328;-79
2022/11/20 00:44:09;;;;;;;23.13;13.73;;;0.50;99.90;;;;;;6210595;23;20048;-79
2022/11/20 00:46:35;;;;;;;25.35;13.75;;;0.50;99.90;;;;;;6212304;23;20015;-79
2022/11/20 00:49:00;;;;;;;25.38;12.57;;;0.50;99.90;;;;;;6210193;23;20044;-79
2022/11/20 00:51:27;;;;;;;21.23;13.27;;;0.80;99.90;;;;;;6211815;23;20091;-78
2022/11/20 00:53:56;;;;;;;22.02;13.40;;;0.40;99.90;;;;;;6212283;23;20047;-79
2022/11/20 00:56:21;;;;;;;21.73;13.05;;;0.40;99.90;;;;;;6233134;23;20020;-79
2022/11/20 00:58:48;;;;;;;21.75;13.77;;;0.40;99.90;;;;;;6242292;23;20010;-79
2022/11/20 01:01:18;;;;;;;27.88;17.42;;;0.40;99.90;;;;;;6242145;23;20535;-79
2022/11/20 01:03:46;;;;;;;22.83;13.02;;;0.40;99.90;;;;;;6242153;23;20016;-79
2022/11/20 01:06:17;;;;;;;23.15;13.50;;;0.50;99.90;;;;;;6215525;23;20031;-79
2022/11/20 01:08:44;;;;;;;21.08;11.88;;;0.40;99.90;;;;;;6215257;23;20016;-79
2022/11/20 01:11:13;;;;;;;22.08;12.25;;;0.40;99.90;;;;;;6216119;23;20016;-79
2022/11/20 01:13:39;;;;;;;22.85;13.68;;;0.40;99.90;;;;;;6214095;23;20083;-79
2022/11/20 01:16:18;;;;;;;22.20;12.88;;;0.40;99.90;;;;;;6243137;23;20048;-79
2022/11/20 01:18:47;;;;;;;23.30;12.90;;;0.40;99.90;;;;;;6242056;23;20023;-79
2022/11/20 01:21:24;;;;;;;20.33;12.32;;;0.40;99.90;;;;;;6214789;23;20431;-78
2022/11/20 01:23:51;;;;;;;21.73;12.68;;;0.40;99.90;;;;;;6189730;23;20020;-78
2022/11/20 01:26:19;;;;;;;21.17;12.15;;;0.40;99.90;;;;;;6241215;23;20018;-79
2022/11/20 01:28:45;;;;;;;19.70;12.30;;;0.40;99.90;;;;;;6215037;23;20020;-79
2022/11/20 01:31:21;;;;;;;22.55;13.23;;;0.40;99.90;;;;;;6214221;23;20019;-79
2022/11/20 01:33:49;;;;;;;23.92;13.75;;;0.40;99.90;;;;;;6241946;23;20012;-79
2022/11/20 01:36:16;;;;;;;21.98;12.75;;;0.40;99.90;;;;;;6215125;23;20020;-79
2022/11/20 01:38:42;;;;;;;23.08;12.50;;;0.40;99.90;;;;;;6214573;23;20022;-79
2022/11/20 01:41:08;;;;;;;20.70;12.30;;;0.40;99.90;;;;;;6240834;23;20502;-79
2022/11/20 01:43:35;;;;;;;20.58;11.82;;;0.40;99.90;;;;;;6242687;23;20419;-79
2022/11/20 01:46:16;;;;;;;23.30;13.82;;;0.40;99.90;;;;;;6241496;23;20027;-79
2022/11/20 01:48:52;;;;;;;23.60;13.85;;;0.40;99.90;;;;;;6241396;23;20424;-79
2022/11/20 01:51:41;;;;;;;19.70;11.90;;;0.40;99.90;;;;;;6214319;23;20016;-79
2022/11/20 01:54:12;;;;;;;22.15;12.40;;;0.50;99.90;;;;;;6223752;23;20019;-79
2022/11/20 01:56:42;;;;;;;21.17;12.43;;;0.50;99.90;;;;;;6241325;23;20026;-79
2022/11/20 01:59:10;;;;;;;26.23;16.60;;;0.50;99.90;;;;;;6190323;23;20417;-79
2022/11/20 02:01:36;;;;;;;25.05;14.35;;;0.50;99.90;;;;;;6241472;23;20050;-79
2022/11/20 02:04:02;;;;;;;26.17;14.88;;;0.40;99.90;;;;;;6241780;23;20045;-79
2022/11/20 02:06:59;;;;;;;19.05;11.65;;;0.50;99.90;;;;;;6241469;23;20063;-79
2022/11/20 02:09:26;;;;;;;19.20;11.00;;;1.40;99.90;;;;;;6214767;23;20087;-79
2022/11/20 02:11:52;;;;;;;19.13;12.02;;;0.50;99.90;;;;;;6241117;23;20325;-78
2022/11/20 02:14:18;;;;;;;20.25;11.43;;;0.50;99.90;;;;;;6215393;23;20044;-79
2022/11/20 02:16:46;;;;;;;20.33;12.43;;;0.50;99.90;;;;;;6214430;23;20016;-79
2022/11/20 02:19:32;;;;;;;24.90;16.10;;;0.50;99.90;;;;;;6214050;23;20134;-79
2022/11/20 02:22:30;;;;;;;19.67;11.70;;;0.50;99.90;;;;;;6240792;23;20075;-79
2022/11/20 02:25:00;;;;;;;21.98;11.60;;;0.50;99.90;;;;;;6191398;23;20016;-79
2022/11/20 02:27:26;;;;;;;21.85;12.05;;;0.50;99.90;;;;;;6214832;23;20464;-79
2022/11/20 02:30:01;;;;;;;23.48;12.98;;;0.50;99.90;;;;;;6241299;23;20012;-79
2022/11/20 02:32:33;;;;;;;20.70;11.57;;;0.50;99.90;;;;;;6214796;23;20016;-79
2022/11/20 02:35:26;;;;;;;20.92;11.80;;;0.50;99.90;;;;;;6213643;23;20368;-79
2022/11/20 02:37:54;;;;;;;76.47;33.13;;;0.50;99.90;;;;;;6213379;23;20019;-79
2022/11/20 02:40:21;;;;;;;114.93;50.97;;;0.50;99.90;;;;;;6214248;23;20038;-79
2022/11/20 02:42:47;;;;;;;86.57;40.55;;;0.50;99.90;;;;;;6212579;23;20039;-79
2022/11/20 02:45:13;;;;;;;35.30;20.15;;;0.50;99.90;;;;;;6240465;23;20020;-79
2022/11/20 02:47:38;;;;;;;24.98;15.00;;;0.50;99.90;;;;;;6189063;23;20397;-79
2022/11/20 02:50:05;;;;;;;24.58;14.75;;;0.50;99.90;;;;;;6241835;23;20012;-79
2022/11/20 02:52:30;;;;;;;23.27;14.07;;;0.50;99.90;;;;;;6241349;23;20502;-78
2022/11/20 02:54:56;;;;;;;31.70;17.73;;;0.60;99.90;;;;;;6214343;23;20016;-78
2022/11/20 02:57:22;;;;;;;23.73;14.10;;;0.70;99.90;;;;;;6214793;23;20322;-78
2022/11/20 02:59:48;;;;;;;23.30;14.13;;;0.60;99.90;;;;;;6214369;23;20016;-79
2022/11/20 03:02:13;;;;;;;19.00;10.38;;;0.70;99.90;;;;;;6241560;23;20016;-79
2022/11/20 03:04:39;;;;;;;18.20;10.65;;;0.70;99.90;;;;;;6241817;23;20527;-79
2022/11/20 03:07:05;;;;;;;18.95;10.95;;;0.70;99.90;;;;;;6214454;23;20023;-79
2022/11/20 03:09:30;;;;;;;19.45;11.15;;;0.70;99.90;;;;;;6188470;23;20019;-79
2022/11/20 03:11:56;;;;;;;21.58;11.43;;;0.70;99.90;;;;;;6214135;23;20016;-79
2022/11/20 03:14:21;;;;;;;20.30;12.45;;;0.70;99.90;;;;;;6214361;23;20310;-79
2022/11/20 03:16:47;;;;;;;21.92;12.30;;;0.70;99.90;;;;;;6212981;23;20020;-79
2022/11/20 03:19:13;;;;;;;18.35;10.77;;;0.70;99.90;;;;;;6241564;23;20048;-79
2022/11/20 03:21:39;;;;;;;18.35;11.02;;;0.70;99.90;;;;;;6242094;23;20333;-79
2022/11/20 03:24:05;;;;;;;19.20;11.23;;;0.70;99.90;;;;;;6213309;23;20038;-79
2022/11/20 03:26:31;;;;;;;20.27;11.27;;;0.70;99.90;;;;;;6214855;23;20512;-79
2022/11/20 03:29:00;;;;;;;16.67;10.68;;;0.70;99.90;;;;;;6241309;23;20008;-79
2022/11/20 03:31:30;;;;;;;18.67;10.88;;;0.70;99.90;;;;;;6214493;23;20016;-79
2022/11/20 03:33:57;;;;;;;17.58;10.23;;;0.70;99.90;;;;;;6241123;23;20042;-78
2022/11/20 03:36:24;;;;;;;19.52;11.68;;;0.80;99.90;;;;;;6189217;23;20034;-79
2022/11/20 03:38:49;;;;;;;20.02;11.68;;;0.80;99.90;;;;;;6213861;23;20106;-79
2022/11/20 03:41:20;;;;;;;18.42;11.15;;;0.80;99.90;;;;;;6241573;23;20410;-79
2022/11/20 03:43:51;;;;;;;16.08;9.75;;;0.80;99.90;;;;;;6214333;23;20022;-79
2022/11/20 03:46:17;;;;;;;18.75;10.98;;;1.00;99.90;;;;;;6241704;23;20083;-79
2022/11/20 03:48:43;;;;;;;18.05;10.95;;;0.90;99.90;;;;;;6215305;23;20034;-79
2022/11/20 03:51:13;;;;;;;20.55;11.40;;;0.80;99.90;;;;;;6242853;23;20004;-79
2022/11/20 03:53:39;;;;;;;18.45;11.57;;;0.80;99.90;;;;;;6215699;23;20020;-79
2022/11/20 03:56:06;;;;;;;20.35;10.90;;;0.80;99.90;;;;;;6242295;23;20012;-79
2022/11/20 03:58:33;;;;;;;20.13;11.35;;;0.80;99.90;;;;;;6243215;23;20058;-79
2022/11/20 04:01:05;;;;;;;18.85;10.90;;;0.70;99.90;;;;;;6216171;23;20306;-79
2022/11/20 04:03:30;;;;;;;19.85;10.63;;;0.70;99.90;;;;;;6216646;23;20016;-78
2022/11/20 04:06:10;;;;;;;18.73;11.05;;;0.80;99.90;;;;;;6243317;23;20452;-79
2022/11/20 04:08:36;;;;;;;18.25;10.23;;;0.80;99.90;;;;;;6243377;23;20049;-79
2022/11/20 04:11:13;;;;;;;20.08;12.00;;;0.80;99.90;;;;;;6216237;23;20070;-79
2022/11/20 04:13:40;;;;;;;17.65;10.82;;;0.70;99.90;;;;;;6243639;23;20504;-79
2022/11/20 04:16:07;;;;;;;18.27;10.48;;;0.70;99.90;;;;;;6216865;23;20090;-79
2022/11/20 04:18:33;;;;;;;18.42;11.07;;;0.80;99.90;;;;;;6216481;23;20020;-79
2022/11/20 04:20:59;;;;;;;17.92;10.02;;;0.80;99.90;;;;;;6215772;23;20047;-79
2022/11/20 04:23:26;;;;;;;18.02;10.70;;;0.80;99.90;;;;;;6216083;23;20035;-79
2022/11/20 04:25:51;;;;;;;19.42;10.48;;;0.70;99.90;;;;;;6243374;23;20008;-79
2022/11/20 04:28:17;;;;;;;19.25;10.35;;;1.50;99.90;;;;;;6243686;23;20344;-78
2022/11/20 04:30:43;;;;;;;17.52;10.70;;;0.80;99.90;;;;;;6215487;23;20016;-79
2022/11/20 04:33:08;;;;;;;18.33;10.45;;;0.80;99.90;;;;;;6241884;23;20073;-79
2022/11/20 04:35:34;;;;;;;17.27;10.15;;;1.60;99.90;;;;;;6242978;23;20447;-79
2022/11/20 04:38:00;;;;;;;18.88;11.00;;;1.50;99.90;;;;;;6215029;23;20539;-79
2022/11/20 04:40:27;;;;;;;17.30;10.30;;;0.80;99.90;;;;;;6215564;23;20043;-79
2022/11/20 04:42:52;;;;;;;21.83;12.23;;;0.90;99.90;;;;;;6214803;23;20062;-79
2022/11/20 04:45:18;;;;;;;17.35;10.35;;;0.90;99.90;;;;;;6215870;23;20016;-79
2022/11/20 04:47:43;;;;;;;19.98;10.55;;;0.80;99.90;;;;;;6242581;23;20463;-79
2022/11/20 04:50:09;;;;;;;17.65;9.98;;;0.90;99.90;;;;;;6190813;23;20050;-79
2022/11/20 04:52:35;;;;;;;18.35;10.70;;;0.90;99.90;;;;;;6215352;23;20024;-78
2022/11/20 04:55:00;;;;;;;19.73;10.90;;;0.80;99.90;;;;;;6215703;23;20027;-79
2022/11/20 04:57:26;;;;;;;17.10;9.73;;;0.90;99.90;;;;;;6214922;23;20032;-79
2022/11/20 04:59:52;;;;;;;16.95;11.15;;;0.90;99.90;;;;;;6242936;23;20052;-78
2022/11/20 05:02:17;;;;;;;18.85;10.60;;;0.90;99.90;;;;;;6242373;23;20016;-79
2022/11/20 05:04:43;;;;;;;18.25;10.30;;;0.90;99.90;;;;;;6189915;23;20024;-79
2022/11/20 05:07:09;;;;;;;18.48;9.70;;;0.90;99.90;;;;;;6215670;23;20098;-79
2022/11/20 05:09:34;;;;;;;17.05;9.50;;;0.90;99.90;;;;;;6241904;23;20121;-78
2022/11/20 05:12:00;;;;;;;16.60;10.60;;;0.90;99.90;;;;;;6242403;23;20389;-79
2022/11/20 05:14:26;;;;;;;18.15;9.82;;;0.90;99.90;;;;;;6242679;23;20012;-79
2022/11/20 05:16:51;;;;;;;15.68;9.75;;;0.90;99.90;;;;;;6215060;23;20020;-79
2022/11/20 05:19:17;;;;;;;16.75;10.15;;;0.90;99.90;;;;;;6214118;23;20024;-79
2022/11/20 05:21:43;;;;;;;19.17;11.25;;;0.90;99.90;;;;;;6189784;23;20397;-79
2022/11/20 05:24:08;;;;;;;16.70;10.20;;;0.90;99.90;;;;;;6242345;23;20015;-79
2022/11/20 05:26:34;;;;;;;16.70;9.45;;;0.90;99.90;;;;;;6242725;23;20038;-79
2022/11/20 05:28:59;;;;;;;15.90;9.73;;;0.90;99.90;;;;;;6242041;23;20012;-79
2022/11/20 05:31:25;;;;;;;18.58;9.75;;;0.90;99.90;;;;;;6216021;23;20043;-79
2022/11/20 05:33:51;;;;;;;16.75;8.70;;;0.90;99.90;;;;;;6214825;23;20512;-79
2022/11/20 05:36:17;;;;;;;16.17;9.32;;;0.90;99.90;;;;;;6214909;23;20044;-79
2022/11/20 05:38:43;;;;;;;16.48;9.43;;;0.90;99.90;;;;;;6215426;23;20016;-79
2022/11/20 05:41:15;;;;;;;17.45;10.10;;;0.90;99.90;;;;;;6242612;23;20074;-79
2022/11/20 05:43:42;;;;;;;19.02;10.27;;;0.90;99.90;;;;;;6241890;23;20020;-79
2022/11/20 05:46:10;;;;;;;16.83;9.25;;;1.00;99.90;;;;;;6242289;23;20012;-79
2022/11/20 05:48:38;;;;;;;18.60;10.20;;;1.00;99.90;;;;;;6242316;23;20019;-79
2022/11/20 05:51:05;;;;;;;17.17;9.80;;;1.00;99.90;;;;;;6215072;23;20019;-79
2022/11/20 05:53:32;;;;;;;16.90;9.98;;;1.00;99.90;;;;;;6190163;23;20020;-79
2022/11/20 05:56:10;;;;;;;15.63;9.05;;;1.00;99.90;;;;;;6241974;23;20429;-79
2022/11/20 05:58:36;;;;;;;15.52;10.40;;;1.00;99.90;;;;;;6242351;23;20016;-79
2022/11/20 06:01:20;;;;;;;16.15;10.00;;;1.00;99.90;;;;;;6214711;23;20008;-79
2022/11/20 06:03:47;;;;;;;17.50;10.05;;;1.00;99.90;;;;;;6189435;23;20322;-79
2022/11/20 06:06:14;;;;;;;20.95;13.38;;;1.00;99.90;;;;;;6242736;23;20016;-80
2022/11/20 06:08:40;;;;;;;17.05;9.75;;;1.00;99.90;;;;;;6215575;23;20399;-79
2022/11/20 06:11:07;;;;;;;18.90;11.50;;;1.00;99.90;;;;;;6215152;23;20316;-79
2022/11/20 06:13:33;;;;;;;15.52;9.25;;;1.00;99.90;;;;;;6242115;23;20055;-79
2022/11/20 06:15:59;;;;;;;16.13;8.98;;;1.30;99.90;;;;;;6215911;23;20019;-79
2022/11/20 06:18:28;;;;;;;14.82;8.77;;;0.90;99.90;;;;;;6240637;23;20471;-79
2022/11/20 06:21:08;;;;;;;19.23;9.48;;;0.90;99.90;;;;;;6242055;23;20027;-79
2022/11/20 06:23:35;;;;;;;12.57;7.78;;;0.90;99.90;;;;;;6215376;23;20090;-79
2022/11/20 06:26:10;;;;;;;17.67;10.05;;;0.90;99.90;;;;;;6214908;23;20369;-79
2022/11/20 06:28:35;;;;;;;15.63;8.88;;;0.90;99.90;;;;;;6241922;23;20019;-79
2022/11/20 06:31:01;;;;;;;17.17;8.38;;;0.90;99.90;;;;;;6241358;23;20446;-79
2022/11/20 06:33:28;;;;;;;13.98;8.27;;;0.90;99.90;;;;;;6214656;23;20023;-79
2022/11/20 06:35:57;;;;;;;15.68;8.70;;;0.90;99.90;;;;;;6213108;23;20024;-79
2022/11/20 06:38:23;;;;;;;14.52;9.23;;;0.90;99.90;;;;;;6214006;23;20050;-80
2022/11/20 06:40:49;;;;;;;15.63;9.00;;;0.90;99.90;;;;;;6242027;23;20362;-79
2022/11/20 06:43:14;;;;;;;15.73;8.88;;;0.90;99.90;;;;;;6215109;23;20020;-80
2022/11/20 06:45:40;;;;;;;15.55;9.43;;;1.00;99.90;;;;;;6242060;23;20463;-80
2022/11/20 06:48:06;;;;;;;17.05;8.38;;;1.00;99.90;;;;;;6191145;23;20015;-79
2022/11/20 06:50:31;;;;;;;16.63;9.20;;;1.00;99.90;;;;;;6191754;23;20012;-79
2022/11/20 06:53:00;;;;;;;17.77;10.27;;;1.00;99.90;;;;;;6216340;23;20436;-80
2022/11/20 06:55:26;;;;;;;16.85;10.13;;;1.00;99.90;;;;;;6242234;23;20016;-79
2022/11/20 06:57:52;;;;;;;14.32;9.13;;;1.00;99.90;;;;;;6215005;23;20013;-80
2022/11/20 07:00:17;;;;;;;14.00;8.55;;;1.00;99.90;;;;;;6215411;23;20012;-79
2022/11/20 07:02:43;;;;;;;17.42;9.68;;;1.00;99.90;;;;;;6214335;23;20019;-79
2022/11/20 07:05:09;;;;;;;18.60;11.18;;;1.00;99.90;;;;;;6242796;23;20024;-79
2022/11/20 07:07:34;;;;;;;15.43;9.63;;;1.00;99.90;;;;;;6243364;23;20394;-79
2022/11/20 07:10:00;;;;;;;16.63;9.55;;;1.10;99.90;;;;;;6215551;23;20020;-79
2022/11/20 07:12:25;;;;;;;14.73;9.00;;;1.10;99.90;;;;;;6243122;23;20042;-79
2022/11/20 07:14:51;;;;;;;15.90;8.73;;;1.10;99.90;;;;;;6240968;23;20066;-80
2022/11/20 07:17:17;;;;;;;16.13;9.43;;;1.10;99.90;;;;;;6243125;23;20039;-79
2022/11/20 07:19:42;;;;;;;17.08;9.98;;;1.10;99.90;;;;;;6214828;23;20035;-79
2022/11/20 07:22:08;;;;;;;17.10;10.82;;;1.10;99.90;;;;;;6242030;23;20008;-80
2022/11/20 07:24:34;;;;;;;17.48;9.35;;;1.00;99.90;;;;;;6242572;23;20012;-80
2022/11/20 07:27:00;;;;;;;18.58;12.20;;;1.00;99.90;;;;;;6216671;23;20016;-79
2022/11/20 07:29:26;;;;;;;22.15;15.35;;;1.00;99.90;;;;;;6243422;23;20062;-79
2022/11/20 07:31:52;;;;;;;20.63;14.68;;;1.00;99.90;;;;;;6243988;23;20038;-80
2022/11/20 07:34:17;;;;;;;16.75;11.48;;;1.10;99.90;;;;;;6242019;23;20027;-80
2022/11/20 07:36:43;;;;;;;19.20;12.00;;;1.00;99.90;;;;;;6243639;23;20024;-80
2022/11/20 07:39:08;;;;;;;17.85;11.45;;;1.00;99.90;;;;;;6216765;23;20020;-79
2022/11/20 07:41:34;;;;;;;20.95;10.25;;;1.00;99.90;;;;;;6243713;23;20024;-80
2022/11/20 07:43:59;;;;;;;17.88;10.13;;;1.00;99.90;;;;;;6215089;23;20020;-80
2022/11/20 07:46:25;;;;;;;17.50;10.20;;;1.00;99.90;;;;;;6243628;23;20012;-80
2022/11/20 07:48:51;;;;;;;18.05;11.73;;;1.00;99.90;;;;;;6243370;23;20008;-80
2022/11/20 07:51:17;;;;;;;16.20;10.88;;;1.00;99.90;;;;;;6242866;23;20016;-79
2022/11/20 07:53:43;;;;;;;17.25;9.30;;;1.00;99.90;;;;;;6243163;23;20016;-80
2022/11/20 07:56:09;;;;;;;16.63;9.20;;;1.00;99.90;;;;;;6215873;23;20413;-80
2022/11/20 07:58:34;;;;;;;15.95;8.95;;;1.00;99.90;;;;;;6242390;23;20082;-80
2022/11/20 08:01:07;;;;;;;15.55;8.77;;;1.00;99.90;;;;;;6242935;23;20008;-80
2022/11/20 08:03:33;;;;;;;42.38;25.40;;;1.00;99.90;;;;;;6214757;23;20091;-80
2022/11/20 08:06:00;;;;;;;21.63;13.68;;;1.00;99.90;;;;;;6215786;23;20463;-79
2022/11/20 08:08:27;;;;;;;16.10;9.10;;;1.00;99.90;;;;;;6242675;23;20008;-80
2022/11/20 08:10:52;;;;;;;15.27;9.20;;;1.00;99.90;;;;;;6215010;23;20454;-80
2022/11/20 08:16:02;;;;;;;15.60;8.85;;;1.10;99.90;;;;;;6243775;23;20027;-80
2022/11/20 08:18:28;;;;;;;15.13;10.07;;;1.10;99.90;;;;;;6216113;23;20016;-79
2022/11/20 08:20:53;;;;;;;16.27;9.63;;;1.10;99.90;;;;;;6242077;23;20015;-80
2022/11/20 08:23:19;;;;;;;19.15;10.20;;;1.20;99.90;;;;;;6242472;23;20027;-79
2022/11/20 08:25:49;;;;;;;15.02;9.82;;;1.20;99.90;;;;;;6242509;23;20020;-80
2022/11/20 08:28:15;;;;;;;22.92;15.00;;;1.20;99.90;;;;;;6241939;23;20344;-80
2022/11/20 08:30:40;;;;;;;28.05;16.92;;;1.30;99.90;;;;;;6216585;23;20016;-80
2022/11/20 08:33:08;;;;;;;16.90;9.68;;;1.20;99.90;;;;;;6217653;23;20012;-80
2022/11/20 08:35:35;;;;;;;21.05;9.75;;;1.30;99.90;;;;;;6192837;23;20016;-80
2022/11/20 08:38:02;;;;;;;15.18;8.88;;;1.30;99.90;;;;;;6245904;23;20749;-80
2022/11/20 08:40:28;;;;;;;15.48;8.65;;;1.30;99.90;;;;;;6218553;23;20091;-79
2022/11/20 08:42:53;;;;;;;13.10;8.38;;;1.30;99.90;;;;;;6217889;23;20020;-80
2022/11/20 08:45:19;;;;;;;14.77;8.00;;;1.30;99.90;;;;;;6217419;23;20012;-80
2022/11/20 08:47:45;;;;;;;15.98;9.27;;;1.30;99.90;;;;;;6244854;23;20023;-80
2022/11/20 08:50:13;;;;;;;16.50;9.95;;;1.40;99.90;;;;;;6244838;23;20004;-81
2022/11/20 08:52:39;;;;;;;15.75;9.13;;;1.40;99.90;;;;;;6244648;23;20448;-80
2022/11/20 08:55:05;;;;;;;13.45;7.65;;;1.40;99.90;;;;;;6244348;23;20100;-79
2022/11/20 08:57:32;;;;;;;15.10;9.10;;;1.40;99.90;;;;;;6243922;23;20016;-81
2022/11/20 08:59:58;;;;;;;13.63;8.40;;;1.40;99.90;;;;;;6244841;23;20016;-80
2022/11/20 09:02:24;;;;;;;15.85;8.35;;;1.40;99.90;;;;;;6216384;23;20075;-80
2022/11/20 09:04:50;;;;;;;16.10;8.43;;;1.50;99.90;;;;;;6243646;23;20036;-80
2022/11/20 09:07:16;;;;;;;14.25;9.52;;;1.50;99.90;;;;;;6192887;23;20008;-80
2022/11/20 09:09:41;;;;;;;12.93;7.97;;;1.50;99.90;;;;;;6216599;23;20017;-80
2022/11/20 09:12:07;;;;;;;13.68;7.82;;;1.50;99.90;;;;;;6244592;23;20012;-80
2022/11/20 09:14:33;;;;;;;14.10;8.20;;;1.50;99.90;;;;;;6245238;23;20030;-82
2022/11/20 09:16:59;;;;;;;15.95;10.88;;;1.50;99.90;;;;;;6192365;23;20087;-80
2022/11/20 09:19:25;;;;;;;15.38;10.55;;;1.50;99.90;;;;;;6242913;23;20008;-81
2022/11/20 09:21:51;;;;;;;13.73;7.85;;;1.60;99.90;;;;;;6216013;23;20043;-80
2022/11/20 09:24:17;;;;;;;14.00;7.65;;;1.60;99.90;;;;;;6241558;23;20361;-80
2022/11/20 09:26:43;;;;;;;15.75;9.32;;;1.60;99.90;;;;;;6241840;23;20012;-80
2022/11/20 09:29:08;;;;;;;13.20;7.97;;;1.60;99.90;;;;;;6241524;23;20016;-81
2022/11/20 09:31:34;;;;;;;13.35;8.43;;;1.70;99.90;;;;;;6213221;23;20336;-81
2022/11/20 09:34:00;;;;;;;14.48;7.85;;;1.70;99.90;;;;;;6238916;23;20386;-80
2022/11/20 09:36:26;;;;;;;14.48;8.75;;;1.70;99.90;;;;;;6239994;23;20012;-80
2022/11/20 09:38:52;;;;;;;13.25;7.88;;;1.70;99.90;;;;;;6212330;23;20452;-80
2022/11/20 09:41:53;;;;;;;13.02;8.80;;;1.80;99.90;;;;;;6212698;23;20115;-83
2022/11/20 09:44:39;;;;;;;12.90;8.05;;;1.80;99.90;;;;;;6214489;23;20023;-81
2022/11/20 09:47:34;;;;;;;12.52;7.38;;;1.90;99.90;;;;;;6220324;23;20016;-79
2022/11/20 09:50:05;;;;;;;13.85;8.40;;;2.00;99.90;;;;;;6240727;23;20062;-78
2022/11/20 09:53:02;;;;;;;13.55;7.47;;;2.00;99.90;;;;;;6242325;23;20008;-78
2022/11/20 09:55:29;;;;;;;12.43;7.90;;;2.00;99.90;;;;;;6189400;23;20016;-79
2022/11/20 09:57:55;;;;;;;13.45;7.85;;;2.10;99.90;;;;;;6215383;23;20447;-79
2022/11/20 10:00:21;;;;;;;12.35;7.28;;;2.10;99.90;;;;;;6242301;23;20012;-78
2022/11/20 10:03:11;;;;;;;14.73;8.25;;;2.10;99.90;;;;;;6241810;23;20191;-78
2022/11/20 10:06:10;;;;;;;13.10;7.13;;;2.10;99.90;;;;;;6214992;23;20016;-79
2022/11/20 10:08:44;;;;;;;17.35;9.32;;;2.20;99.90;;;;;;6192199;23;20468;-79
2022/11/20 10:11:51;;;;;;;14.20;8.82;;;2.20;99.90;;;;;;6241723;23;20020;-78
2022/11/20 10:14:40;;;;;;;17.50;8.50;;;2.20;99.90;;;;;;6119360;23;20072;-79
2022/11/20 10:17:43;;;;;;;14.90;7.90;;;2.20;99.90;;;;;;6099525;23;20501;-79
2022/11/20 10:20:17;;;;;;;13.00;8.02;;;2.20;99.90;;;;;;6055514;23;20041;-80
2022/11/20 10:23:15;;;;;;;12.38;7.63;;;2.20;99.90;;;;;;6118672;23;20026;-78
2022/11/20 10:26:00;;;;;;;11.18;7.00;;;2.20;99.90;;;;;;5980677;23;20019;-79
2022/11/20 10:28:44;;;;;;;14.50;7.63;;;2.30;99.90;;;;;;5956547;23;20480;-80
2022/11/20 10:31:17;;;;;;;18.23;10.05;;;2.30;99.90;;;;;;6003907;23;20022;-78
2022/11/20 10:33:49;;;;;;;13.82;8.55;;;2.40;99.90;;;;;;5980638;23;20083;-79
2022/11/20 10:36:23;;;;;;;15.40;8.07;;;2.40;99.90;;;;;;5979557;23;20024;-78
2022/11/20 10:38:55;;;;;;;12.18;7.10;;;2.40;99.90;;;;;;6002363;23;20016;-80
2022/11/20 10:41:28;;;;;;;14.18;7.93;;;2.50;99.90;;;;;;5980052;23;20020;-81
2022/11/20 10:44:10;;;;;;;13.13;7.57;;;2.50;99.90;;;;;;5977860;23;20072;-78
2022/11/20 10:46:45;;;;;;;14.57;8.40;;;2.50;99.90;;;;;;5990162;23;20491;-79
2022/11/20 10:49:16;;;;;;;14.82;8.45;;;2.50;99.90;;;;;;5991786;23;20837;-78
2022/11/20 10:52:02;;;;;;;13.02;7.68;;;2.50;99.90;;;;;;6057307;23;20026;-79
2022/11/20 10:54:39;;;;;;;13.00;8.05;;;2.50;99.90;;;;;;6058245;23;20022;-79
2022/11/20 10:57:13;;;;;;;13.85;8.05;;;2.60;99.90;;;;;;6053173;23;20026;-79
2022/11/20 10:59:59;;;;;;;12.23;7.05;;;2.60;99.90;;;;;;6080124;23;20609;-80
2022/11/20 11:02:34;;;;;;;12.73;8.20;;;2.70;99.90;;;;;;6201118;23;20027;-81
2022/11/20 11:05:10;;;;;;;12.45;7.18;;;2.70;99.90;;;;;;6231914;23;20008;-80
2022/11/20 11:07:39;;;;;;;12.18;7.22;;;2.70;99.90;;;;;;6205048;23;20016;-81
2022/11/20 11:10:18;;;;;;;16.05;8.27;;;2.70;99.90;;;;;;6232394;23;20016;-81
2022/11/20 11:12:46;;;;;;;15.82;10.60;;;2.80;99.90;;;;;;6204904;23;20012;-82
2022/11/20 11:15:39;;;;;;;11.82;7.13;;;2.80;99.90;;;;;;6201783;23;20016;-82
2022/11/20 11:18:09;;;;;;;12.85;6.90;;;2.80;99.90;;;;;;6217538;23;20069;-82
2022/11/20 11:20:34;;;;;;;10.85;6.30;;;2.80;99.90;;;;;;6231305;23;20079;-82
2022/11/20 11:23:00;;;;;;;11.75;6.50;;;2.70;99.90;;;;;;6205736;23;20055;-82
2022/11/20 11:25:35;;;;;;;11.88;7.55;;;2.70;99.90;;;;;;6228923;23;20012;-83
2022/11/20 11:28:19;;;;;;;11.13;6.65;;;2.70;99.90;;;;;;6233824;23;20014;-81
2022/11/20 11:30:46;;;;;;;13.82;6.85;;;2.60;99.90;;;;;;6231915;23;20012;-81
2022/11/20 11:33:20;;;;;;;9.85;5.85;;;2.60;99.90;;;;;;6206566;23;20091;-81
2022/11/20 11:35:56;;;;;;;10.20;6.40;;;2.60;99.90;;;;;;6200468;23;20012;-83
2022/11/20 11:38:43;;;;;;;11.88;6.65;;;2.60;99.90;;;;;;6206281;23;20471;-83
2022/11/20 11:41:18;;;;;;;12.40;7.45;;;2.60;99.90;;;;;;6231834;23;20018;-81
2022/11/20 11:46:50;;;;;;;11.93;8.27;;;2.60;99.90;;;;;;6200849;23;20020;-82
2022/11/20 11:49:18;;;;;;;12.27;6.95;;;2.60;99.90;;;;;;6233570;23;20654;-83
2022/11/20 11:52:02;;;;;;;13.48;6.95;;;2.60;99.90;;;;;;6205431;23;20129;-83
2022/11/20 11:54:38;;;;;;;13.02;8.27;;;2.60;99.90;;;;;;6206144;23;20024;-82
2022/11/20 11:57:29;;;;;;;11.38;6.88;;;2.60;99.90;;;;;;6227779;23;20027;-83
2022/11/20 12:00:11;;;;;;;12.18;6.75;;;2.70;99.90;;;;;;6233034;23;20336;-82
2022/11/20 12:02:45;;;;;;;12.30;7.03;;;2.70;99.90;;;;;;6206345;23;20008;-81
2022/11/20 12:05:13;;;;;;;10.95;6.72;;;2.70;99.90;;;;;;6230227;23;20031;-80
2022/11/20 12:07:54;;;;;;;10.70;7.28;;;2.70;99.90;;;;;;6232497;23;20081;-80
2022/11/20 12:10:36;;;;;;;12.73;7.25;;;2.70;99.90;;;;;;6234541;23;20027;-79
2022/11/20 12:13:18;;;;;;;12.93;8.20;;;2.70;99.90;;;;;;6236016;23;20091;-79
2022/11/20 12:15:47;;;;;;;12.68;8.60;;;2.70;99.90;;;;;;6229703;23;20392;-80
2022/11/20 12:18:21;;;;;;;9.88;5.75;;;2.80;99.90;;;;;;6235528;23;20020;-80
2022/11/20 12:21:22;;;;;;;7.63;4.78;;;2.90;99.90;;;;;;6207166;23;20015;-79
2022/11/20 12:24:26;;;;;;;8.40;4.60;;;3.10;99.90;;;;;;6235682;23;20020;-78
2022/11/20 12:27:14;;;;;;;9.07;4.10;;;3.30;99.90;;;;;;6224115;23;20407;-78
2022/11/20 12:30:07;;;;;;;8.07;4.13;;;3.50;99.90;;;;;;6234050;23;20012;-78
2022/11/20 12:32:51;;;;;;;8.50;4.40;;;3.60;99.90;;;;;;6235076;23;20497;-79
2022/11/20 12:35:39;;;;;;;9.23;4.35;;;3.70;99.90;;;;;;6231185;23;20012;-78
2022/11/20 12:38:36;;;;;;;8.15;4.53;;;3.90;99.90;;;;;;6207892;23;20012;-78
2022/11/20 12:47:45;;;;;;;7.30;4.32;;;4.20;99.90;;;;;;6206443;23;20064;-80
2022/11/20 12:50:29;;;;;;;8.18;4.63;;;4.10;99.90;;;;;;6207377;23;20087;-79
2022/11/20 12:53:35;;;;;;;8.17;4.80;;;4.10;99.90;;;;;;6207990;23;20077;-79
2022/11/20 12:56:25;;;;;;;9.15;5.28;;;4.00;99.90;;;;;;6176966;23;20024;-79
2022/11/20 12:59:07;;;;;;;10.20;5.60;;;3.90;99.90;;;;;;6207482;23;20023;-79
2022/11/20 13:01:57;;;;;;;9.27;5.57;;;3.70;99.90;;;;;;6206372;23;20012;-79
2022/11/20 13:04:47;;;;;;;9.57;5.35;;;3.60;99.90;;;;;;6233323;23;20322;-79
2022/11/20 13:07:14;;;;;;;10.32;5.45;;;3.50;99.90;;;;;;6227973;23;20039;-78
2022/11/20 13:09:50;;;;;;;9.93;5.50;;;3.30;99.90;;;;;;6204061;23;20016;-79
2022/11/20 13:12:28;;;;;;;9.95;5.88;;;3.40;99.90;;;;;;6207254;23;20554;-80